Lancaster, New Hampshire
Current Conditions -  °F | °C
As of 5:59 AM on Sunday 26 Oct 2014 (Local Time) from KHIE Reporting Station
Overcast Overcast  
Wind Chill: 44°   Ceiling: 2600
Heat Index: 44°   Visibility: 10mi
Dew Point: 42°   Wind: 3mph
Humidity: 93%   Direction: 210°SSW
Pressure: 29.42"   Gusts: NA
Location:  44.49°N, 71.57°W
Report Text: KHIE 260959Z AUTO 21003KT 10SM BKN026 OVC055 07/06 A2942 RMK AO2 T00670056
Loading
Personal Weather Stations






























Interactive Weather Map
Tropical Storm Tracking
New forecast layout! Learn more

10-Day Weather Forecast

Advertisements
Track Severe Weather on mobile